createdAt,value
2019-05-07T00:01:13.872Z,8.68
2019-05-07T00:03:43.636Z,8.00
2019-05-07T00:06:13.338Z,8.80
2019-05-07T00:08:45.049Z,9.03
2019-05-07T00:11:14.733Z,8.80
2019-05-07T00:13:44.973Z,8.93
2019-05-07T00:16:14.620Z,8.10
2019-05-07T00:18:44.991Z,8.10
2019-05-07T00:21:14.867Z,8.30
2019-05-07T00:23:44.754Z,8.30
2019-05-07T00:26:14.881Z,8.43
2019-05-07T00:28:44.641Z,8.40
2019-05-07T00:31:14.286Z,8.50
2019-05-07T00:33:43.811Z,8.53
2019-05-07T00:36:24.618Z,8.33
2019-05-07T00:39:02.793Z,8.25
2019-05-07T00:41:52.250Z,9.08
2019-05-07T00:44:23.072Z,7.40
2019-05-07T00:46:53.676Z,8.33
2019-05-07T00:49:25.122Z,8.43
2019-05-07T00:51:55.847Z,8.23
2019-05-07T00:54:25.490Z,8.55
2019-05-07T00:56:55.134Z,7.53
2019-05-07T00:59:25.019Z,7.60
2019-05-07T01:01:55.023Z,7.90
2019-05-07T01:04:24.911Z,7.97
2019-05-07T01:06:54.794Z,8.33
2019-05-07T01:09:24.678Z,8.10
2019-05-07T01:11:54.681Z,8.15
2019-05-07T01:14:24.687Z,7.70
2019-05-07T01:16:54.212Z,8.10
2019-05-07T01:19:23.857Z,8.45
2019-05-07T01:21:53.621Z,7.80
2019-05-07T01:24:23.486Z,9.03
2019-05-07T01:26:53.631Z,7.53
2019-05-07T01:29:23.515Z,8.13
2019-05-07T01:31:58.920Z,7.80
2019-05-07T01:34:38.288Z,7.85
2019-05-07T01:37:08.291Z,7.60
2019-05-07T01:39:37.935Z,6.83
2019-05-07T01:42:07.699Z,7.50
2019-05-07T01:44:38.065Z,7.42
2019-05-07T01:47:07.710Z,7.50
2019-05-07T01:49:37.714Z,7.42
2019-05-07T01:52:07.718Z,7.00
2019-05-07T01:54:37.843Z,6.83
2019-05-07T01:57:07.848Z,7.40
2019-05-07T01:59:37.972Z,7.60
2019-05-07T02:02:18.657Z,7.10
2019-05-07T02:04:56.342Z,6.70
2019-05-07T02:07:37.029Z,7.10
2019-05-07T02:10:42.793Z,6.53
2019-05-07T02:13:13.170Z,7.10
2019-05-07T02:15:44.127Z,8.18
2019-05-07T02:18:14.369Z,7.60
2019-05-07T02:20:43.894Z,6.83
2019-05-07T02:23:13.902Z,7.10
2019-05-07T02:25:44.262Z,7.45
2019-05-07T02:28:14.626Z,6.70
2019-05-07T02:30:44.762Z,7.28
2019-05-07T02:33:14.517Z,7.10
2019-05-07T02:35:44.521Z,7.70
2019-05-07T02:38:22.814Z,7.20
2019-05-07T02:41:02.924Z,7.20
2019-05-07T02:43:33.845Z,6.55
2019-05-07T02:46:26.084Z,7.03
2019-05-07T02:48:55.706Z,7.10
2019-05-07T02:51:33.349Z,6.75
2019-05-07T02:54:07.963Z,6.30
2019-05-07T02:56:37.599Z,6.80
2019-05-07T02:59:07.487Z,7.00
2019-05-07T03:01:37.737Z,7.10
2019-05-07T03:04:07.734Z,7.30
2019-05-07T03:06:37.381Z,7.12
2019-05-07T03:09:07.982Z,7.20
2019-05-07T03:11:38.108Z,8.10
2019-05-07T03:14:07.873Z,7.22
2019-05-07T03:16:43.502Z,7.00
2019-05-07T03:19:09.688Z,7.30
2019-05-07T03:21:55.510Z,6.85
2019-05-07T03:24:36.094Z,6.90
2019-05-07T03:27:05.857Z,6.80
2019-05-07T03:29:37.428Z,7.17
2019-05-07T03:32:37.863Z,6.62
2019-05-07T03:35:28.162Z,6.47
2019-05-07T03:37:58.316Z,6.90
2019-05-07T03:40:28.802Z,6.90
2019-05-07T03:43:01.735Z,7.05
2019-05-07T03:45:45.012Z,7.00
2019-05-07T03:48:19.464Z,7.00
2019-05-07T03:50:52.589Z,7.17
2019-05-07T03:53:22.993Z,6.85
2019-05-07T03:55:53.925Z,7.90
2019-05-07T03:58:24.124Z,6.70
2019-05-07T04:00:54.147Z,7.37
2019-05-07T04:03:24.738Z,6.80
2019-05-07T04:05:54.771Z,7.00
2019-05-07T04:08:24.417Z,7.10
2019-05-07T04:10:54.705Z,6.73
2019-05-07T04:13:24.906Z,6.70
2019-05-07T04:15:54.910Z,7.00
2019-05-07T04:18:25.036Z,7.12
2019-05-07T04:20:55.522Z,6.67
2019-05-07T04:23:25.284Z,7.00
2019-05-07T04:26:07.528Z,6.90
2019-05-07T04:29:05.572Z,6.95
2019-05-07T04:31:42.931Z,6.85
2019-05-07T04:34:23.651Z,7.08
2019-05-07T04:36:53.417Z,7.87
2019-05-07T04:39:23.522Z,7.70
2019-05-07T04:41:53.521Z,7.70
2019-05-07T04:44:23.908Z,7.20
2019-05-07T04:46:54.612Z,7.87
2019-05-07T04:49:24.287Z,6.90
2019-05-07T04:52:05.541Z,7.55
2019-05-07T04:54:36.143Z,8.30
2019-05-07T04:57:08.307Z,7.37
2019-05-07T04:59:37.959Z,8.50
2019-05-07T05:02:14.796Z,8.10
2019-05-07T05:04:44.441Z,7.33
2019-05-07T05:07:14.204Z,8.45
2019-05-07T05:09:44.569Z,8.50
2019-05-07T05:12:14.213Z,9.10
2019-05-07T05:14:44.218Z,8.90
2019-05-07T05:17:13.871Z,7.78
2019-05-07T05:19:43.994Z,7.72
2019-05-07T05:22:25.873Z,7.50
2019-05-07T05:25:12.245Z,8.13
2019-05-07T05:27:43.048Z,7.50
2019-05-07T05:30:16.168Z,7.50
2019-05-07T05:32:47.013Z,7.70
2019-05-07T05:35:16.899Z,8.00
2019-05-07T05:37:47.622Z,8.20
2019-05-07T05:40:17.506Z,8.25
2019-05-07T05:42:54.832Z,8.03
2019-05-07T05:45:39.359Z,7.80
2019-05-07T05:48:09.125Z,7.80
2019-05-07T05:50:56.648Z,8.20
2019-05-07T05:53:32.829Z,8.00
2019-05-07T05:56:06.737Z,7.47
2019-05-07T05:58:45.982Z,7.90
2019-05-07T06:01:34.708Z,7.55
2019-05-07T06:04:13.114Z,6.97
2019-05-07T06:07:07.000Z,6.33
2019-05-07T06:09:32.936Z,8.40
2019-05-07T06:12:25.606Z,8.10
2019-05-07T06:15:06.532Z,6.70
2019-05-07T06:17:54.057Z,6.85
2019-05-07T06:20:52.300Z,6.40
2019-05-07T06:23:28.512Z,6.67
2019-05-07T06:25:58.272Z,6.35
2019-05-07T06:28:28.757Z,6.70
2019-05-07T06:30:58.522Z,7.30
2019-05-07T06:33:28.406Z,6.40
2019-05-07T06:35:58.051Z,6.67
2019-05-07T06:38:29.376Z,7.33
2019-05-07T06:41:18.581Z,6.22
2019-05-07T06:43:56.149Z,6.33
2019-05-07T06:46:25.790Z,6.83
2019-05-07T06:48:55.435Z,6.97
2019-05-07T06:51:25.800Z,7.15
2019-05-07T06:53:55.446Z,6.58
2019-05-07T06:56:25.213Z,6.30
2019-05-07T06:59:13.934Z,6.87
2019-05-07T07:01:59.226Z,6.20
2019-05-07T07:04:48.505Z,6.33
2019-05-07T07:07:42.134Z,6.45
2019-05-07T07:10:32.082Z,6.60
2019-05-07T07:13:02.412Z,6.10
2019-05-07T07:15:32.235Z,6.25
2019-05-07T07:18:03.134Z,6.60
2019-05-07T07:20:33.416Z,6.70
2019-05-07T07:23:03.421Z,6.00
2019-05-07T07:25:32.944Z,6.20
2019-05-07T07:28:03.189Z,6.10
2019-05-07T07:30:58.274Z,6.60
2019-05-07T07:33:32.010Z,6.67
2019-05-07T07:36:02.655Z,7.15
2019-05-07T07:38:36.212Z,6.37
2019-05-07T07:41:23.494Z,7.30
2019-05-07T07:43:53.262Z,7.10
2019-05-07T07:46:23.503Z,6.83
2019-05-07T07:49:06.913Z,7.60
2019-05-07T07:51:37.919Z,7.30
2019-05-07T07:53:56.877Z,7.60
2019-05-07T07:56:53.819Z,7.10
2019-05-07T07:59:50.168Z,7.45
2019-05-07T08:02:32.203Z,8.20
2019-05-07T08:05:02.214Z,7.50
2019-05-07T08:07:33.076Z,7.17
2019-05-07T08:10:03.272Z,6.40
2019-05-07T08:12:32.912Z,6.10
2019-05-07T08:15:14.698Z,6.20
2019-05-07T08:17:34.603Z,6.13
2019-05-07T08:20:04.846Z,5.90
2019-05-07T08:22:34.852Z,6.00
2019-05-07T08:25:05.456Z,6.00
2019-05-07T08:27:35.580Z,5.53
2019-05-07T08:30:06.427Z,5.05
2019-05-07T08:32:49.275Z,4.50
2019-05-07T08:35:32.681Z,3.65
2019-05-07T08:38:03.321Z,5.57
2019-05-07T08:40:32.964Z,5.80
2019-05-07T08:43:03.369Z,3.97
2019-05-07T08:45:52.400Z,4.37
2019-05-07T08:48:35.739Z,4.13
2019-05-07T08:51:05.504Z,5.40
2019-05-07T08:53:35.631Z,4.70
2019-05-07T08:56:05.514Z,5.10
2019-05-07T08:58:35.518Z,4.97
2019-05-07T09:01:05.283Z,4.45
2019-05-07T09:03:45.126Z,4.70
2019-05-07T09:06:17.172Z,5.30
2019-05-07T09:08:47.177Z,4.70
2019-05-07T09:11:17.181Z,5.10
2019-05-07T09:13:47.066Z,4.73
2019-05-07T09:16:16.832Z,5.70
2019-05-07T09:18:46.596Z,4.80
2019-05-07T09:21:16.360Z,4.00
2019-05-07T09:23:46.365Z,4.57
2019-05-07T09:26:18.770Z,4.40
2019-05-07T09:29:03.654Z,4.03
2019-05-07T09:31:55.263Z,4.70
2019-05-07T10:11:53.535Z,5.13
2019-05-07T10:14:23.659Z,4.30
2019-05-07T10:17:18.625Z,3.40
2019-05-07T10:19:48.870Z,4.00
2019-05-07T10:22:18.874Z,4.13
2019-05-07T10:24:49.120Z,4.43
2019-05-07T10:27:19.004Z,4.13
2019-05-07T10:29:49.369Z,4.23
2019-05-07T10:32:20.095Z,4.50
2019-05-07T10:34:49.858Z,4.30
2019-05-07T10:37:19.622Z,4.70
2019-05-07T10:39:51.862Z,4.80
2019-05-07T10:42:22.683Z,5.45
2019-05-07T10:45:03.078Z,6.10
2019-05-07T10:47:44.002Z,7.70
2019-05-07T10:50:38.716Z,6.70
2019-05-07T10:53:05.013Z,6.70
2019-05-07T10:55:34.897Z,6.62
2019-05-07T10:58:05.022Z,6.50
2019-05-07T11:00:35.026Z,6.70
2019-05-07T11:03:05.271Z,6.37
2019-05-07T11:05:35.156Z,7.47
2019-05-07T11:08:05.044Z,6.33
2019-05-07T11:10:35.045Z,6.05
2019-05-07T11:13:05.290Z,5.90
2019-05-07T11:15:35.294Z,6.10
2019-05-07T11:18:19.104Z,5.70
2019-05-07T11:20:50.567Z,5.78
2019-05-07T11:23:22.242Z,5.70
2019-05-07T11:25:52.723Z,6.37
2019-05-07T11:28:22.782Z,5.80
2019-05-07T11:30:52.845Z,5.70
2019-05-07T11:33:22.490Z,5.92
2019-05-07T11:35:52.769Z,5.80
2019-05-07T11:38:24.932Z,5.60
2019-05-07T11:40:55.502Z,5.50
2019-05-07T11:43:46.746Z,5.20
2019-05-07T11:46:32.592Z,5.20
2019-05-07T11:49:08.717Z,5.45
2019-05-07T11:51:47.122Z,5.12
2019-05-07T11:54:17.487Z,5.50
2019-05-07T11:56:47.130Z,5.10
2019-05-07T11:59:17.500Z,5.75
2019-05-07T12:01:52.600Z,5.28
2019-05-07T12:04:22.666Z,5.12
2019-05-07T12:06:52.191Z,4.60
2019-05-07T12:09:21.956Z,6.10
2019-05-07T12:11:52.107Z,5.37
2019-05-07T12:14:30.959Z,5.62
2019-05-07T12:16:53.289Z,5.80
2019-05-07T12:19:22.938Z,5.30
2019-05-07T12:21:52.801Z,5.15
2019-05-07T12:24:22.943Z,5.70
2019-05-07T12:26:52.588Z,5.33
2019-05-07T12:29:22.352Z,5.47
2019-05-07T12:32:11.200Z,4.77
2019-05-07T12:34:54.282Z,5.50
2019-05-07T15:15:22.189Z,4.60
2019-05-07T15:18:02.748Z,4.50
2019-05-07T15:20:33.124Z,4.10
2019-05-07T15:23:22.542Z,5.00
2019-05-07T15:25:52.323Z,4.30
2019-05-07T15:28:22.850Z,4.20
2019-05-07T15:31:32.049Z,4.93
2019-05-07T15:34:02.987Z,4.30
2019-05-07T15:36:33.384Z,4.70
2019-05-07T15:39:03.507Z,5.00
2019-05-07T15:41:33.997Z,4.40
2019-05-07T15:44:04.238Z,4.63
2019-05-07T15:46:35.442Z,4.60
2019-05-07T15:49:05.807Z,4.17
2019-05-07T15:51:36.171Z,4.70
2019-05-07T15:54:06.176Z,4.00
2019-05-07T15:56:36.783Z,5.10
2019-05-07T15:59:07.267Z,5.53
2019-05-07T16:01:37.152Z,4.63
2019-05-07T16:04:19.107Z,4.67
2019-05-07T16:06:37.760Z,3.93
2019-05-07T16:09:07.646Z,4.43
2019-05-07T16:11:37.654Z,4.33
2019-05-07T16:14:27.055Z,4.40
2019-05-07T16:17:13.300Z,4.60
2019-05-07T16:19:42.944Z,3.60
2019-05-07T16:22:17.270Z,4.33
2019-05-07T16:24:47.394Z,4.47
2019-05-07T16:27:17.278Z,4.30
2019-05-07T16:29:47.043Z,4.20
2019-05-07T16:32:17.048Z,4.00
2019-05-07T16:34:47.059Z,4.10
2019-05-07T16:37:17.059Z,3.70
2019-05-07T16:39:46.942Z,3.87
2019-05-07T16:42:16.586Z,4.63
2019-05-07T16:44:46.231Z,4.17
2019-05-07T16:47:16.596Z,4.13
2019-05-07T16:49:46.722Z,4.20
2019-05-07T16:52:16.245Z,4.33
2019-05-07T16:54:46.010Z,3.93
2019-05-07T16:57:22.615Z,4.50
2019-05-07T16:59:53.222Z,4.13
2019-05-07T17:02:27.186Z,3.97
2019-05-07T17:05:12.407Z,4.62
2019-05-07T17:08:13.758Z,4.90
2019-05-07T17:10:44.122Z,4.37
2019-05-07T17:13:13.887Z,4.42
2019-05-07T17:15:59.732Z,5.07
2019-05-07T17:18:32.280Z,4.58
2019-05-07T17:21:02.045Z,5.70
2019-05-07T17:23:43.329Z,5.65
2019-05-07T17:26:05.058Z,5.97
2019-05-07T17:28:35.155Z,5.60
2019-05-07T17:31:05.878Z,5.40
2019-05-07T17:33:36.843Z,6.13
2019-05-07T17:36:06.969Z,5.70
2019-05-07T17:38:37.092Z,5.50
2019-05-07T17:41:13.758Z,5.28
2019-05-07T17:43:38.902Z,5.20
2019-05-07T17:46:09.146Z,5.80
2019-05-07T17:48:39.631Z,4.60
2019-05-07T17:51:29.077Z,5.03
2019-05-07T17:54:00.282Z,4.90
2019-05-07T17:56:32.039Z,4.50
2019-05-07T17:59:02.805Z,4.50
2019-05-07T18:01:52.906Z,3.95
2019-05-07T18:04:22.501Z,4.13
2019-05-07T18:06:52.508Z,4.00
2019-05-07T18:09:22.675Z,3.30
2019-05-07T18:11:52.875Z,3.47
2019-05-07T18:14:23.001Z,3.80
2019-05-07T18:17:14.964Z,4.47
2019-05-07T18:19:46.290Z,4.70
2019-05-07T18:22:16.055Z,4.50
2019-05-07T18:24:46.899Z,5.05
2019-05-07T18:27:26.027Z,3.90
2019-05-07T18:29:55.909Z,4.33
2019-05-07T18:32:35.154Z,5.08
2019-05-07T18:35:05.043Z,5.30
2019-05-07T18:37:37.443Z,6.25
2019-05-07T18:40:07.688Z,6.90
2019-05-07T18:42:37.932Z,5.95
2019-05-07T18:45:08.777Z,5.17
2019-05-07T18:47:39.142Z,5.40
2019-05-07T18:50:09.026Z,5.75
2019-05-07T18:52:39.032Z,5.00
2019-05-07T18:55:11.868Z,4.78
2019-05-07T18:57:42.170Z,5.17
2019-05-07T19:00:16.725Z,4.90
2019-05-07T19:02:46.730Z,4.53
2019-05-07T19:05:19.428Z,4.20
2019-05-07T19:08:00.962Z,4.20
2019-05-07T19:10:22.021Z,4.65
2019-05-07T19:12:53.229Z,4.50
2019-05-07T19:15:23.834Z,4.50
2019-05-07T19:17:54.083Z,4.90
2019-05-07T19:20:24.323Z,4.53
2019-05-07T19:22:54.207Z,4.37
2019-05-07T19:25:24.454Z,5.92
2019-05-07T19:27:54.697Z,8.05
2019-05-07T19:30:24.341Z,8.68
2019-05-07T19:32:54.109Z,9.27
2019-05-07T19:35:24.712Z,6.70
2019-05-07T19:37:54.235Z,6.20
2019-05-07T19:40:24.241Z,5.58
2019-05-07T19:42:54.366Z,5.23
2019-05-07T19:45:24.673Z,7.10
2019-05-07T19:47:56.774Z,6.90
2019-05-07T19:50:26.540Z,7.10
2019-05-07T19:52:57.024Z,6.30
2019-05-07T19:55:27.031Z,5.25
2019-05-07T19:58:00.873Z,5.20
2019-05-07T20:00:32.660Z,5.40
2019-05-07T20:03:03.411Z,5.58
2019-05-07T20:05:37.032Z,5.60
2019-05-07T20:08:05.213Z,5.37
2019-05-07T20:10:55.978Z,5.72
2019-05-07T20:13:27.377Z,6.05
2019-05-07T20:16:12.272Z,5.97
2019-05-07T20:18:42.863Z,5.10
2019-05-07T20:21:13.276Z,5.80
2019-05-07T20:23:43.417Z,6.62
2019-05-07T20:26:13.421Z,6.27
2019-05-07T20:28:43.052Z,5.42
2019-05-07T20:31:12.815Z,5.70
2019-05-07T20:33:42.581Z,5.25
2019-05-07T20:36:12.585Z,6.60
2019-05-07T20:38:42.834Z,7.67
2019-05-07T20:41:16.399Z,8.83
2019-05-07T20:43:44.039Z,7.50
2019-05-07T20:46:13.689Z,7.08
2019-05-07T20:48:43.569Z,6.40
2019-05-07T20:51:13.332Z,5.80
2019-05-07T20:54:12.840Z,5.80
2019-05-07T20:56:46.675Z,5.60
2019-05-07T20:59:16.709Z,6.00
2019-05-07T21:01:46.252Z,5.80
2019-05-07T21:04:16.843Z,6.65
2019-05-07T21:06:46.603Z,6.40
2019-05-07T21:09:16.968Z,6.40
2019-05-07T21:11:47.092Z,6.03
2019-05-07T21:14:17.099Z,6.25
2019-05-07T21:16:47.101Z,5.60
2019-05-07T21:19:17.827Z,6.83
2019-05-07T21:21:48.312Z,6.85
2019-05-07T21:24:18.795Z,6.37
2019-05-07T21:26:48.806Z,6.47
2019-05-07T21:29:18.805Z,6.80
2019-05-07T21:31:48.689Z,6.20
2019-05-07T21:34:18.815Z,6.67
2019-05-07T21:36:49.059Z,5.50
2019-05-07T21:39:19.307Z,6.10
2019-05-07T21:41:48.828Z,6.30
2019-05-07T21:44:18.952Z,6.20
2019-05-07T21:46:48.479Z,6.45
2019-05-07T21:49:18.482Z,6.28
2019-05-07T21:51:48.488Z,6.70
2019-05-07T21:54:34.215Z,6.15
2019-05-07T21:57:19.216Z,5.90
2019-05-07T21:59:49.221Z,6.28
2019-05-07T22:02:22.714Z,7.50
2019-05-07T22:04:52.965Z,6.80
2019-05-07T22:07:23.076Z,6.58
2019-05-07T22:09:54.317Z,6.62
2019-05-07T22:12:24.649Z,6.97
2019-05-07T22:14:54.650Z,6.60
2019-05-07T22:17:24.895Z,6.25
2019-05-07T22:19:55.022Z,6.00
2019-05-07T22:22:25.024Z,7.05
2019-05-07T22:24:55.389Z,7.40
2019-05-07T22:27:25.274Z,6.37
2019-05-07T22:29:55.159Z,6.70
2019-05-07T22:32:46.886Z,6.22
2019-05-07T22:35:19.769Z,6.50
2019-05-07T22:37:51.961Z,6.65
2019-05-07T22:40:22.525Z,6.70
2019-05-07T22:42:52.903Z,6.50
2019-05-07T22:45:22.807Z,6.90
2019-05-07T22:47:52.673Z,7.17
2019-05-07T22:50:23.278Z,7.42
2019-05-07T22:52:54.434Z,6.40
2019-05-07T22:55:24.726Z,7.27
2019-05-07T22:58:28.691Z,7.10
2019-05-07T23:01:03.016Z,7.28
2019-05-07T23:03:32.903Z,6.72
2019-05-07T23:06:08.429Z,6.30
2019-05-07T23:08:42.115Z,6.72
2019-05-07T23:11:12.184Z,7.00
2019-05-07T23:13:42.870Z,7.50
2019-05-07T23:16:13.008Z,7.37
2019-05-07T23:18:43.022Z,7.30
2019-05-07T23:21:13.014Z,7.30
2019-05-07T23:23:43.379Z,7.30
2019-05-07T23:26:14.806Z,9.28
2019-05-07T23:28:45.069Z,9.15
2019-05-07T23:31:14.833Z,9.28
2019-05-07T23:33:44.959Z,8.93
2019-05-07T23:36:14.842Z,8.83
2019-05-07T23:38:44.847Z,9.23
2019-05-07T23:41:30.093Z,9.60
2019-05-07T23:44:18.103Z,9.35
2019-05-07T23:46:48.107Z,9.83
2019-05-07T23:49:18.229Z,9.55
2019-05-07T23:51:48.011Z,10.10
2019-05-07T23:54:36.319Z,10.10
2019-05-07T23:57:09.519Z,8.70
2019-05-07T23:59:37.013Z,10.28
